Terminal Aerodrome Forecast
Issued by NWS

Home | Current Version | Previous Version | Text Only | Print | Product List | Glossary On
Versions: 1 2 3 4 5 6 7 8 9 10 11 12 13 14 15 16 17 18 19 20 21 22 23 24 25 26 27 28 29 30 31 32 33 34
660
FTUS44 KHGX 292326
TAFSGR
TAF
KSGR 292326Z 3000/3024 09009KT P6SM VCTS BKN045CB BKN060
     FM300030 VRB05KT P6SM FEW080 BKN250
     FM300200 VRB04KT P6SM SCT250
     FM301300 23005KT P6SM BKN025
     FM301500 22006KT P6SM SCT035
     FM302000 18007KT P6SM VCTS SCT050CB=

USA.gov is the U.S. government's official web portal to all federal, state and local government web resources and services.